^^
Your Local Weather - Clay, NY Station Historical Data
Daily Summary for June 16, 2017 Units:  English    Metric   Both
« Previous Day
Next Day »
Daily Weekly Monthly Yearly Custom
  High: Low: Average:
Temperature: 77.4 °F 63.6 °F 69.4 °F
Dew Point: 66.8 °F 53.5 °F 60.7 °F
Humidity: 90% 61% 74%
Wind Speed: 7.0mph 1.0mph 3.2mph
Wind Gust: 10.0mph - -
Wind- - SE
Pressure: 29.85 in 29.77 in -
Precipitation: 0.04 in    
Historical Graphs
 
 
Tabular Data for June 16, 2017
Time Temperature Dew Point Pressure Wind Wind Speed Wind Gust Humidity Rainfall Rate (Hourly) solar
00:04 67.1 °F 62.4 °F 29.79 in South 5.0 mph 9.0 mph 85% 0.00 in 0 W/m2
00:09 67.3 °F 62.3 °F 29.79 in SSW 5.0 mph 5.0 mph 84% 0.00 in 0 W/m2
00:16 67.3 °F 62.0 °F 29.79 in South 5.0 mph 5.0 mph 83% 0.00 in 0 W/m2
00:22 67.3 °F 62.3 °F 29.79 in SE 4.0 mph 4.0 mph 84% 0.00 in 0 W/m2
00:28 67.3 °F 62.0 °F 29.79 in South 4.0 mph 5.0 mph 83% 0.00 in 0 W/m2
00:33 67.5 °F 61.8 °F 29.79 in SSW 4.0 mph 4.0 mph 82% 0.00 in 0 W/m2
00:39 67.6 °F 61.9 °F 29.79 in South 4.0 mph 6.0 mph 82% 0.00 in 0 W/m2
00:45 67.6 °F 61.6 °F 29.79 in SSE 4.0 mph 6.0 mph 81% 0.00 in 0 W/m2
00:52 67.8 °F 61.4 °F 29.79 in SSW 4.0 mph 7.0 mph 80% 0.00 in 0 W/m2
00:58 67.9 °F 61.1 °F 29.79 in South 4.0 mph 7.0 mph 79% 0.00 in 0 W/m2
01:03 68.3 °F 60.8 °F 29.79 in SE 5.0 mph 6.0 mph 77% 0.00 in 0 W/m2
01:09 68.3 °F 60.8 °F 29.79 in SW 5.0 mph 5.0 mph 77% 0.00 in 0 W/m2
01:16 68.3 °F 60.4 °F 29.79 in SW 4.0 mph 5.0 mph 76% 0.00 in 0 W/m2
01:22 68.4 °F 60.5 °F 29.79 in SSE 5.0 mph 5.0 mph 76% 0.00 in 0 W/m2
01:28 68.5 °F 60.3 °F 29.79 in SSE 5.0 mph 5.0 mph 75% 0.00 in 0 W/m2
01:33 68.6 °F 60.4 °F 29.79 in SSE 5.0 mph 5.0 mph 75% 0.00 in 0 W/m2
01:40 68.8 °F 59.8 °F 29.79 in SSE 4.0 mph 5.0 mph 73% 0.00 in 0 W/m2
01:45 68.6 °F 60.0 °F 29.79 in SSW 4.0 mph 5.0 mph 74% 0.00 in 0 W/m2
01:52 68.8 °F 59.4 °F 29.79 in SSE 5.0 mph 5.0 mph 72% 0.00 in 0 W/m2
01:58 68.9 °F 59.1 °F 29.79 in South 5.0 mph 7.0 mph 71% 0.00 in 0 W/m2
02:03 68.9 °F 59.5 °F 29.79 in South 4.0 mph 5.0 mph 72% 0.00 in 0 W/m2
02:09 68.9 °F 59.1 °F 29.79 in South 4.0 mph 4.0 mph 71% 0.00 in 0 W/m2
02:16 68.9 °F 59.1 °F 29.79 in SSE 4.0 mph 5.0 mph 71% 0.00 in 0 W/m2
02:22 68.8 °F 59.0 °F 29.78 in South 3.0 mph 3.0 mph 71% 0.00 in 0 W/m2
02:28 68.6 °F 58.4 °F 29.78 in SSW 2.0 mph 4.0 mph 70% 0.00 in 0 W/m2
02:33 68.6 °F 58.4 °F 29.78 in SSW 3.0 mph 3.0 mph 70% 0.00 in 0 W/m2
02:39 68.7 °F 58.1 °F 29.78 in SSE 3.0 mph 3.0 mph 69% 0.00 in 0 W/m2
02:46 68.8 °F 57.4 °F 29.78 in ESE 3.0 mph 4.0 mph 67% 0.00 in 0 W/m2
02:52 68.8 °F 57.0 °F 29.78 in SSE 3.0 mph 4.0 mph 66% 0.00 in 0 W/m2
02:58 68.6 °F 57.2 °F 29.77 in SSE 2.0 mph 4.0 mph 67% 0.00 in 0 W/m2
03:04 68.5 °F 56.7 °F 29.77 in South 3.0 mph 5.0 mph 66% 0.00 in 0 W/m2
03:10 68.3 °F 56.9 °F 29.77 in SSW 2.0 mph 4.0 mph 67% 0.00 in 0 W/m2
03:15 68.1 °F 57.1 °F 29.77 in South 2.0 mph 4.0 mph 68% 0.00 in 0 W/m2
03:22 68.0 °F 56.6 °F 29.78 in SSW 2.0 mph 3.0 mph 67% 0.00 in 0 W/m2
03:28 68.1 °F 56.3 °F 29.78 in SSW 2.0 mph 3.0 mph 66% 0.00 in 0 W/m2
03:33 68.3 °F 56.1 °F 29.77 in SE 4.0 mph 7.0 mph 65% 0.00 in 0 W/m2
03:40 68.5 °F 56.3 °F 29.78 in SW 4.0 mph 4.0 mph 65% 0.00 in 0 W/m2
03:46 68.4 °F 55.3 °F 29.78 in SE 4.0 mph 4.0 mph 63% 0.00 in 0 W/m2
03:52 68.5 °F 55.4 °F 29.78 in South 4.0 mph 5.0 mph 63% 0.00 in 0 W/m2
03:58 68.6 °F 55.1 °F 29.78 in South 4.0 mph 8.0 mph 62% 0.00 in 0 W/m2
04:03 68.6 °F 54.6 °F 29.78 in SSE 4.0 mph 7.0 mph 61% 0.00 in 0 W/m2
04:09 68.6 °F 55.5 °F 29.78 in SSW 4.0 mph 6.0 mph 63% 0.00 in 0 W/m2
04:16 68.6 °F 54.6 °F 29.78 in SW 4.0 mph 6.0 mph 61% 0.00 in 0 W/m2
04:22 68.2 °F 55.1 °F 29.79 in SW 4.0 mph 9.0 mph 63% 0.00 in 0 W/m2
04:28 67.2 °F 56.3 °F 29.79 in SW 5.0 mph 10.0 mph 68% 0.56 in 0 W/m2
04:34 65.7 °F 56.4 °F 29.79 in SSE 5.0 mph 6.0 mph 72% 0.13 in 0 W/m2
04:39 65.0 °F 56.1 °F 29.79 in WSW 3.0 mph 3.0 mph 73% 0.06 in 0 W/m2
04:52 64.0 °F 57.7 °F 29.79 in SSW 1.0 mph 5.0 mph 80% 0.00 in 0 W/m2
04:58 64.3 °F 55.1 °F 29.79 in SW 3.0 mph 5.0 mph 72% 0.00 in 0 W/m2
05:04 64.8 °F 54.4 °F 29.79 in SSW 5.0 mph 7.0 mph 69% 0.00 in 0 W/m2
05:09 65.1 °F 53.9 °F 29.79 in SSW 4.0 mph 4.0 mph 67% 0.00 in 0 W/m2
05:15 65.2 °F 53.6 °F 29.80 in SSE 4.0 mph 5.0 mph 66% 0.00 in 0 W/m2
05:22 65.1 °F 53.5 °F 29.80 in South 4.0 mph 5.0 mph 66% 0.00 in 0 W/m2
05:28 65.1 °F 53.9 °F 29.81 in South 3.0 mph 6.0 mph 67% 0.00 in 0 W/m2
05:33 65.0 °F 53.8 °F 29.81 in SSW 4.0 mph 4.0 mph 67% 0.00 in 0 W/m2
05:40 64.7 °F 53.9 °F 29.81 in South 4.0 mph 4.0 mph 68% 0.00 in 0 W/m2
05:45 64.7 °F 54.3 °F 29.81 in South 4.0 mph 7.0 mph 69% 0.00 in 5 W/m2
05:52 64.5 °F 54.5 °F 29.82 in SSW 4.0 mph 4.0 mph 70% 0.00 in 7 W/m2
05:58 64.5 °F 54.9 °F 29.82 in SSW 4.0 mph 4.0 mph 71% 0.00 in 5 W/m2
06:03 64.6 °F 55.4 °F 29.82 in SSE 4.0 mph 4.0 mph 72% 0.00 in 7 W/m2
06:09 64.7 °F 55.5 °F 29.82 in SW 5.0 mph 5.0 mph 72% 0.00 in 12 W/m2
06:15 64.6 °F 55.4 °F 29.82 in SSE 4.0 mph 6.0 mph 72% 0.00 in 16 W/m2
06:22 64.4 °F 55.6 °F 29.82 in SE 2.0 mph 3.0 mph 73% 0.00 in 12 W/m2
06:28 64.2 °F 55.7 °F 29.82 in SE 3.0 mph 5.0 mph 74% 0.00 in 28 W/m2
06:33 64.1 °F 56.0 °F 29.82 in South 3.0 mph 3.0 mph 75% 0.00 in 37 W/m2
06:39 64.1 °F 56.0 °F 29.82 in South 3.0 mph 3.0 mph 75% 0.00 in 26 W/m2
06:45 64.2 °F 56.1 °F 29.82 in SE 3.0 mph 4.0 mph 75% 0.00 in 21 W/m2
06:52 64.2 °F 56.1 °F 29.83 in SSW 4.0 mph 5.0 mph 75% 0.00 in 28 W/m2
06:58 64.2 °F 56.1 °F 29.83 in South 3.0 mph 5.0 mph 75% 0.00 in 28 W/m2
07:03 64.2 °F 56.1 °F 29.83 in SSE 3.0 mph 4.0 mph 75% 0.00 in 23 W/m2
07:10 64.3 °F 56.2 °F 29.83 in South 3.0 mph 5.0 mph 75% 0.00 in 30 W/m2
07:15 64.3 °F 56.6 °F 29.83 in SE 3.0 mph 5.0 mph 76% 0.00 in 33 W/m2
07:22 64.5 °F 56.4 °F 29.83 in SE 4.0 mph 8.0 mph 75% 0.00 in 40 W/m2
07:28 64.5 °F 56.4 °F 29.83 in SSE 4.0 mph 8.0 mph 75% 0.00 in 32 W/m2
07:34 64.5 °F 56.4 °F 29.83 in SE 4.0 mph 8.0 mph 75% 0.00 in 28 W/m2
07:39 64.5 °F 56.4 °F 29.84 in SSE 4.0 mph 4.0 mph 75% 0.00 in 21 W/m2
07:45 64.4 °F 56.3 °F 29.84 in ESE 2.0 mph 7.0 mph 75% 0.00 in 18 W/m2
07:52 64.3 °F 56.2 °F 29.84 in SSE 3.0 mph 4.0 mph 75% 0.00 in 37 W/m2
07:58 64.3 °F 56.2 °F 29.83 in SSE 4.0 mph 7.0 mph 75% 0.00 in 37 W/m2
08:04 64.2 °F 56.5 °F 29.83 in SSE 4.0 mph 5.0 mph 76% 0.00 in 70 W/m2
08:10 64.3 °F 56.6 °F 29.83 in South 4.0 mph 5.0 mph 76% 0.00 in 86 W/m2
08:15 64.3 °F 56.2 °F 29.83 in ESE 5.0 mph 8.0 mph 75% 0.00 in 77 W/m2
08:22 64.2 °F 56.1 °F 29.83 in SSE 5.0 mph 5.0 mph 75% 0.00 in 70 W/m2
08:28 64.3 °F 56.2 °F 29.83 in SE 5.0 mph 6.0 mph 75% 0.00 in 139 W/m2
08:33 64.5 °F 56.4 °F 29.83 in SSE 5.0 mph 7.0 mph 75% 0.00 in 156 W/m2
08:39 64.6 °F 56.1 °F 29.83 in SSE 5.0 mph 5.0 mph 74% 0.00 in 193 W/m2
08:46 64.9 °F 56.8 °F 29.83 in South 6.0 mph 7.0 mph 75% 0.00 in 281 W/m2
08:52 65.2 °F 57.1 °F 29.83 in SSE 6.0 mph 6.0 mph 75% 0.00 in 199 W/m2
08:58 65.2 °F 56.7 °F 29.83 in SSE 6.0 mph 8.0 mph 74% 0.00 in 234 W/m2
09:04 65.1 °F 57.0 °F 29.83 in South 7.0 mph 7.0 mph 75% 0.00 in 162 W/m2
09:10 65.2 °F 57.1 °F 29.84 in South 6.0 mph 6.0 mph 75% 0.00 in 188 W/m2
09:15 65.2 °F 57.1 °F 29.84 in SSE 4.0 mph 6.0 mph 75% 0.00 in 149 W/m2
09:22 65.3 °F 57.5 °F 29.84 in SSE 3.0 mph 6.0 mph 76% 0.00 in 188 W/m2
09:28 65.4 °F 57.6 °F 29.83 in South 4.0 mph 8.0 mph 76% 0.00 in 204 W/m2
09:34 65.8 °F 57.7 °F 29.83 in South 4.0 mph 4.0 mph 75% 0.00 in 362 W/m2
09:39 66.4 °F 58.6 °F 29.83 in SE 4.0 mph 4.0 mph 76% 0.00 in 353 W/m2
09:45 66.6 °F 58.1 °F 29.84 in South 4.0 mph 4.0 mph 74% 0.00 in 362 W/m2
09:52 66.7 °F 58.5 °F 29.83 in SE 3.0 mph 3.0 mph 75% 0.00 in 315 W/m2
09:58 66.8 °F 58.2 °F 29.83 in SSE 4.0 mph 4.0 mph 74% 0.00 in 306 W/m2
10:04 67.2 °F 59.0 °F 29.83 in SSE 3.0 mph 5.0 mph 75% 0.00 in 394 W/m2
10:09 67.4 °F 58.8 °F 29.84 in SE 3.0 mph 3.0 mph 74% 0.00 in 327 W/m2
10:15 67.3 °F 58.3 °F 29.84 in SSE 4.0 mph 7.0 mph 73% 0.00 in 265 W/m2
10:22 67.5 °F 58.9 °F 29.84 in South 4.0 mph 9.0 mph 74% 0.00 in 281 W/m2
10:28 67.6 °F 58.2 °F 29.84 in South 4.0 mph 9.0 mph 72% 0.00 in 338 W/m2
10:33 67.6 °F 58.2 °F 29.85 in SSW 5.0 mph 6.0 mph 72% 0.00 in 299 W/m2
10:39 67.8 °F 58.8 °F 29.85 in ESE 5.0 mph 7.0 mph 73% 0.00 in 381 W/m2
10:45 68.1 °F 59.1 °F 29.85 in SSE 4.0 mph 7.0 mph 73% 0.00 in 322 W/m2
10:52 68.5 °F 59.1 °F 29.85 in South 3.0 mph 5.0 mph 72% 0.00 in 432 W/m2
10:58 69.0 °F 59.6 °F 29.85 in SSE 4.0 mph 6.0 mph 72% 0.00 in 376 W/m2
11:06 69.2 °F 60.2 °F 29.85 in SE 4.0 mph 7.0 mph 73% 0.00 in 415 W/m2
11:12 69.4 °F 60.4 °F 29.85 in South 4.0 mph 4.0 mph 73% 0.00 in 390 W/m2
11:18 69.6 °F 60.2 °F 29.85 in SE 3.0 mph 4.0 mph 72% 0.00 in 422 W/m2
11:23 69.8 °F 60.4 °F 29.85 in SSE 2.0 mph 3.0 mph 72% 0.00 in 390 W/m2
11:29 70.2 °F 60.7 °F 29.84 in SSE 2.0 mph 6.0 mph 72% 0.00 in 473 W/m2
11:36 70.6 °F 61.1 °F 29.84 in SSE 3.0 mph 6.0 mph 72% 0.00 in 534 W/m2
11:42 71.8 °F 61.9 °F 29.83 in SE 3.0 mph 3.0 mph 71% 0.00 in 997 W/m2
11:48 71.9 °F 60.8 °F 29.83 in SE 3.0 mph 4.0 mph 68% 0.00 in 575 W/m2
11:53 71.9 °F 62.0 °F 29.83 in SE 3.0 mph 4.0 mph 71% 0.00 in 434 W/m2
12:00 71.7 °F 60.6 °F 29.83 in SSE 3.0 mph 4.0 mph 68% 0.00 in 476 W/m2
12:06 71.6 °F 61.3 °F 29.83 in SSE 3.0 mph 4.0 mph 70% 0.00 in 462 W/m2
12:12 71.5 °F 61.6 °F 29.83 in SSE 4.0 mph 4.0 mph 71% 0.00 in 436 W/m2
12:18 71.5 °F 61.2 °F 29.83 in SE 4.0 mph 5.0 mph 70% 0.00 in 526 W/m2
12:23 72.0 °F 62.5 °F 29.82 in SE 4.0 mph 6.0 mph 72% 0.00 in 765 W/m2
12:29 72.5 °F 62.6 °F 29.82 in East 4.0 mph 4.0 mph 71% 0.00 in 468 W/m2
12:35 72.6 °F 61.8 °F 29.82 in SSE 4.0 mph 5.0 mph 69% 0.00 in 724 W/m2
12:42 73.7 °F 63.7 °F 29.82 in SSE 5.0 mph 5.0 mph 71% 0.00 in 1104 W/m2
12:48 73.0 °F 62.2 °F 29.82 in South 5.0 mph 7.0 mph 69% 0.00 in 397 W/m2
12:53 73.7 °F 63.3 °F 29.82 in SE 5.0 mph 5.0 mph 70% 0.00 in 1230 W/m2
12:58 74.1 °F 64.1 °F 29.82 in ESE 4.0 mph 5.0 mph 71% 0.00 in 974 W/m2
13:03 74.1 °F 62.4 °F 29.82 in SE 3.0 mph 4.0 mph 67% 0.00 in 417 W/m2
13:10 73.9 °F 63.1 °F 29.82 in SE 3.0 mph 3.0 mph 69% 0.00 in 455 W/m2
13:15 73.8 °F 62.6 °F 29.82 in SSE 4.0 mph 5.0 mph 68% 0.00 in 383 W/m2
13:22 73.8 °F 62.6 °F 29.82 in SSE 3.0 mph 4.0 mph 68% 0.00 in 552 W/m2
13:28 74.8 °F 63.9 °F 29.82 in SE 1.0 mph 4.0 mph 69% 0.00 in 527 W/m2
13:33 75.0 °F 64.5 °F 29.82 in NE 2.0 mph 3.0 mph 70% 0.00 in 1021 W/m2
13:39 74.9 °F 63.2 °F 29.81 in South 2.0 mph 4.0 mph 67% 0.00 in 464 W/m2
13:46 75.2 °F 63.9 °F 29.81 in SSE 3.0 mph 4.0 mph 68% 0.00 in 1053 W/m2
13:52 75.6 °F 63.0 °F 29.81 in South 4.0 mph 4.0 mph 65% 0.00 in 721 W/m2
13:58 76.6 °F 65.2 °F 29.80 in East 3.0 mph 4.0 mph 68% 0.00 in 1055 W/m2
14:04 77.0 °F 65.2 °F 29.80 in South 2.0 mph 2.0 mph 67% 0.00 in 1123 W/m2
14:10 77.4 °F 64.7 °F 29.80 in SE 3.0 mph 6.0 mph 65% 0.00 in 408 W/m2
14:15 76.0 °F 64.2 °F 29.80 in SSE 3.0 mph 6.0 mph 67% 0.00 in 399 W/m2
14:22 76.2 °F 64.4 °F 29.80 in SSE 3.0 mph 4.0 mph 67% 0.00 in 1028 W/m2
14:28 76.2 °F 64.0 °F 29.80 in ENE 3.0 mph 8.0 mph 66% 0.00 in 338 W/m2
14:34 76.1 °F 64.3 °F 29.80 in SSE 2.0 mph 4.0 mph 67% 0.00 in 387 W/m2
14:40 75.7 °F 66.4 °F 29.80 in East 3.0 mph 3.0 mph 73% 0.00 in 436 W/m2
14:45 75.0 °F 65.0 °F 29.80 in NE 3.0 mph 8.0 mph 71% 0.00 in 302 W/m2
14:52 74.4 °F 64.8 °F 29.80 in North 4.0 mph 5.0 mph 72% 0.00 in 301 W/m2
14:58 74.0 °F 64.4 °F 29.80 in East 4.0 mph 5.0 mph 72% 0.00 in 374 W/m2
15:05 75.3 °F 65.6 °F 29.79 in East 3.0 mph 4.0 mph 72% 0.00 in 990 W/m2
15:12 75.0 °F 65.0 °F 29.80 in ENE 3.0 mph 9.0 mph 71% 0.00 in 872 W/m2
15:18 75.3 °F 65.2 °F 29.79 in NNE 4.0 mph 9.0 mph 71% 0.00 in 738 W/m2
15:24 74.6 °F 64.6 °F 29.79 in East 5.0 mph 5.0 mph 71% 0.00 in 257 W/m2
15:30 75.1 °F 65.9 °F 29.79 in SE 4.0 mph 4.0 mph 73% 0.00 in 830 W/m2
15:35 76.0 °F 65.5 °F 29.79 in ESE 4.0 mph 10.0 mph 70% 0.00 in 817 W/m2
15:42 76.0 °F 65.5 °F 29.79 in NE 4.0 mph 4.0 mph 70% 0.00 in 436 W/m2
15:48 75.5 °F 65.0 °F 29.79 in East 3.0 mph 7.0 mph 70% 0.00 in 902 W/m2
15:53 75.1 °F 65.1 °F 29.79 in ENE 3.0 mph 3.0 mph 71% 0.00 in 243 W/m2
15:59 75.6 °F 65.5 °F 29.79 in NE 3.0 mph 3.0 mph 71% 0.00 in 729 W/m2
16:05 76.3 °F 66.2 °F 29.79 in ENE 2.0 mph 4.0 mph 71% 0.00 in 802 W/m2
16:12 76.5 °F 66.8 °F 29.79 in ENE 3.0 mph 3.0 mph 72% 0.00 in 707 W/m2
16:24 75.6 °F 65.1 °F 29.79 in NE 4.0 mph 5.0 mph 70% 0.00 in 392 W/m2
16:29 75.8 °F 65.7 °F 29.78 in ENE 4.0 mph 4.0 mph 71% 0.00 in 283 W/m2
16:35 75.5 °F 65.0 °F 29.78 in North 4.0 mph 4.0 mph 70% 0.00 in 190 W/m2
16:42 75.6 °F 65.5 °F 29.78 in ESE 3.0 mph 6.0 mph 71% 0.00 in 220 W/m2
16:48 75.6 °F 65.5 °F 29.78 in ESE 3.0 mph 6.0 mph 71% 0.00 in 153 W/m2
16:53 75.4 °F 64.9 °F 29.78 in East 4.0 mph 6.0 mph 70% 0.00 in 146 W/m2
16:59 74.9 °F 65.3 °F 29.78 in ENE 5.0 mph 7.0 mph 72% 0.00 in 160 W/m2
17:06 75.1 °F 65.9 °F 29.78 in East 4.0 mph 7.0 mph 73% 0.00 in 181 W/m2
17:12 75.2 °F 65.1 °F 29.78 in East 4.0 mph 8.0 mph 71% 0.00 in 174 W/m2
17:18 75.1 °F 65.9 °F 29.78 in NE 4.0 mph 8.0 mph 73% 0.00 in 144 W/m2
17:23 75.0 °F 65.4 °F 29.78 in ENE 3.0 mph 5.0 mph 72% 0.00 in 155 W/m2
17:29 74.2 °F 65.4 °F 29.78 in East 4.0 mph 4.0 mph 74% 0.00 in 181 W/m2
17:36 74.5 °F 66.1 °F 29.78 in ESE 3.0 mph 4.0 mph 75% 0.00 in 174 W/m2
17:42 74.4 °F 65.2 °F 29.78 in ENE 3.0 mph 5.0 mph 73% 0.00 in 144 W/m2
17:48 74.5 °F 65.3 °F 29.78 in East 4.0 mph 5.0 mph 73% 0.00 in 123 W/m2
17:54 74.6 °F 65.4 °F 29.78 in ENE 3.0 mph 3.0 mph 73% 0.00 in 107 W/m2
17:59 74.5 °F 65.3 °F 29.78 in ENE 3.0 mph 3.0 mph 73% 0.00 in 93 W/m2
18:05 74.6 °F 65.8 °F 29.78 in ENE 2.0 mph 3.0 mph 74% 0.00 in 100 W/m2
18:12 75.2 °F 65.6 °F 29.78 in ENE 3.0 mph 5.0 mph 72% 0.00 in 116 W/m2
18:18 75.2 °F 65.1 °F 29.78 in SSE 3.0 mph 5.0 mph 71% 0.00 in 118 W/m2
18:24 75.4 °F 65.7 °F 29.79 in SE 3.0 mph 9.0 mph 72% 0.00 in 118 W/m2
18:29 75.4 °F 65.3 °F 29.78 in SSE 3.0 mph 3.0 mph 71% 0.00 in 123 W/m2
18:35 75.5 °F 65.8 °F 29.79 in SE 3.0 mph 3.0 mph 72% 0.00 in 134 W/m2
18:42 75.8 °F 66.1 °F 29.79 in East 2.0 mph 3.0 mph 72% 0.00 in 155 W/m2
18:48 76.0 °F 65.9 °F 29.79 in SE 2.0 mph 3.0 mph 71% 0.00 in 141 W/m2
18:54 75.9 °F 65.4 °F 29.79 in SSE 3.0 mph 5.0 mph 70% 0.00 in 104 W/m2
18:59 75.5 °F 65.4 °F 29.79 in SE 4.0 mph 4.0 mph 71% 0.00 in 81 W/m2
19:05 75.2 °F 65.1 °F 29.79 in East 3.0 mph 4.0 mph 71% 0.00 in 72 W/m2
19:12 75.0 °F 65.4 °F 29.79 in SSE 2.0 mph 2.0 mph 72% 0.00 in 72 W/m2
19:18 74.8 °F 65.2 °F 29.80 in SSE 2.0 mph 3.0 mph 72% 0.00 in 69 W/m2
19:24 74.6 °F 65.4 °F 29.80 in ESE 2.0 mph 3.0 mph 73% 0.00 in 65 W/m2
19:29 74.6 °F 65.4 °F 29.79 in SSE 2.0 mph 5.0 mph 73% 0.00 in 62 W/m2
19:35 74.2 °F 65.0 °F 29.79 in South 2.0 mph 5.0 mph 73% 0.00 in 53 W/m2
19:42 73.9 °F 65.1 °F 29.80 in SE 2.0 mph 3.0 mph 74% 0.00 in 54 W/m2
19:48 73.6 °F 64.8 °F 29.80 in SE 2.0 mph 3.0 mph 74% 0.00 in 54 W/m2
19:53 73.0 °F 64.2 °F 29.79 in ENE 2.0 mph 2.0 mph 74% 0.00 in 53 W/m2
19:59 72.1 °F 63.7 °F 29.79 in ENE 2.0 mph 2.0 mph 75% 0.00 in 46 W/m2
20:05 71.5 °F 63.5 °F 29.80 in NE 1.0 mph 3.0 mph 76% 0.00 in 37 W/m2
20:12 71.0 °F 63.4 °F 29.79 in NE 1.0 mph 1.0 mph 77% 0.00 in 32 W/m2
20:18 70.6 °F 63.0 °F 29.80 in ENE 1.0 mph 3.0 mph 77% 0.00 in 23 W/m2
20:24 70.2 °F 63.0 °F 29.80 in ENE 2.0 mph 2.0 mph 78% 0.00 in 19 W/m2
20:30 69.8 °F 63.0 °F 29.80 in ENE 1.0 mph 2.0 mph 79% 0.00 in 14 W/m2
20:35 69.1 °F 62.7 °F 29.80 in ENE 1.0 mph 3.0 mph 80% 0.00 in 11 W/m2
20:42 68.6 °F 62.2 °F 29.80 in ENE 2.0 mph 3.0 mph 80% 0.00 in 5 W/m2
20:48 68.2 °F 62.1 °F 29.80 in ENE 1.0 mph 3.0 mph 81% 0.00 in 0 W/m2
20:53 67.6 °F 61.9 °F 29.80 in ESE 1.0 mph 4.0 mph 82% 0.00 in 0 W/m2
20:59 67.2 °F 61.5 °F 29.80 in ENE 1.0 mph 1.0 mph 82% 0.00 in 0 W/m2
21:06 67.0 °F 61.7 °F 29.80 in ENE 2.0 mph 2.0 mph 83% 0.00 in 0 W/m2
21:12 66.7 °F 61.4 °F 29.80 in East 1.0 mph 1.0 mph 83% 0.00 in 0 W/m2
21:18 66.6 °F 61.6 °F 29.81 in East 1.0 mph 1.0 mph 84% 0.00 in 0 W/m2
21:23 66.4 °F 61.4 °F 29.81 in East 1.0 mph 2.0 mph 84% 0.00 in 0 W/m2
21:29 66.2 °F 61.6 °F 29.81 in East 1.0 mph 3.0 mph 85% 0.00 in 0 W/m2
21:35 66.1 °F 61.5 °F 29.81 in ENE 1.0 mph 3.0 mph 85% 0.00 in 0 W/m2
21:42 65.9 °F 61.6 °F 29.81 in East 1.0 mph 1.0 mph 86% 0.00 in 0 W/m2
21:48 65.7 °F 61.4 °F 29.82 in ENE 1.0 mph 3.0 mph 86% 0.00 in 0 W/m2
21:53 65.6 °F 61.3 °F 29.82 in ENE 2.0 mph 2.0 mph 86% 0.00 in 0 W/m2
21:59 65.4 °F 61.4 °F 29.82 in ENE 1.0 mph 1.0 mph 87% 0.00 in 0 W/m2
22:05 65.3 °F 61.3 °F 29.82 in East 1.0 mph 1.0 mph 87% 0.00 in 0 W/m2
22:12 65.2 °F 61.2 °F 29.82 in ESE 1.0 mph 2.0 mph 87% 0.00 in 0 W/m2
22:18 65.1 °F 61.1 °F 29.82 in ENE 1.0 mph 3.0 mph 87% 0.00 in 0 W/m2
22:24 65.0 °F 61.0 °F 29.82 in NE 2.0 mph 2.0 mph 87% 0.00 in 0 W/m2
22:30 65.0 °F 61.4 °F 29.82 in NE 2.0 mph 2.0 mph 88% 0.00 in 0 W/m2
22:35 64.8 °F 61.2 °F 29.82 in East 2.0 mph 3.0 mph 88% 0.00 in 0 W/m2
22:42 64.7 °F 61.1 °F 29.82 in ENE 1.0 mph 1.0 mph 88% 0.00 in 0 W/m2
22:46 64.6 °F 61.0 °F 29.82 in ENE 1.0 mph 2.0 mph 88% 0.00 in 0 W/m2
22:52 64.5 °F 60.9 °F 29.83 in ENE 1.0 mph 1.0 mph 88% 0.00 in 0 W/m2
22:58 64.3 °F 60.7 °F 29.82 in ENE 1.0 mph 2.0 mph 88% 0.00 in 0 W/m2
23:04 64.2 °F 60.9 °F 29.83 in ENE 1.0 mph 1.0 mph 89% 0.00 in 0 W/m2
23:09 64.2 °F 60.9 °F 29.83 in ENE 1.0 mph 1.0 mph 89% 0.00 in 0 W/m2
23:16 64.0 °F 60.7 °F 29.83 in ENE 1.0 mph 3.0 mph 89% 0.00 in 0 W/m2
23:22 63.9 °F 60.6 °F 29.82 in East 2.0 mph 2.0 mph 89% 0.00 in 0 W/m2
23:28 63.8 °F 60.5 °F 29.82 in ENE 1.0 mph 2.0 mph 89% 0.00 in 0 W/m2
23:33 63.8 °F 60.5 °F 29.82 in East 1.0 mph 2.0 mph 89% 0.00 in 0 W/m2
23:39 63.7 °F 60.7 °F 29.82 in ENE 1.0 mph 1.0 mph 90% 0.00 in 0 W/m2
23:46 63.6 °F 60.6 °F 29.82 in ENE 2.0 mph 5.0 mph 90% 0.00 in 0 W/m2
23:52 63.6 °F 60.6 °F 29.82 in NE 2.0 mph 2.0 mph 90% 0.00 in 0 W/m2
23:58 63.6 °F 60.6 °F 29.82 in East 1.0 mph 4.0 mph 90% 0.00 in 0 W/m2
Country Meadow, Clay, NY, USA
Compliments of Weather Underground - 2 mb